Nearby METAR Reports

 

KORH - Worcester, Massachusetts, USA
Distance from station: NW 4mi, 7km
Updated: Thu, 02-Apr-2020 12:54pm EDT
Overcast
Overcast
 Wind from NNW
Wind: NNW 18 mph , 30 km/h, Gust: 32 mph , 52 km/h
Temperature: 46°F , 8°C
Wind Chill: 39°F , 4°C
Dew Point: 30°F , -1°C
Humidity: 53%
Barometer: 29.52 inHg , 999.7 hPa
Clouds: Overcast
Visibility: 10 miles , 16 km
Cloud details: Overcast 3500 ft
2020/04/02 16:54 KORH 021654Z 33016G28KT 10SM OVC035 08/M01 A2952 RMK AO2 PK WND 31032/1644 SLP001 T00831006
KBOS - Boston, Massachusetts, USA
Distance from station: ENE 42mi, 68km
Updated: Thu, 02-Apr-2020 1:18pm EDT
Light rain, Overcast
Light rain, Overcast
 Wind from NW
Wind: NW 16 mph , 26 km/h, Gust: 33 mph , 54 km/h
Temperature: 46°F , 8°C
Wind Chill: 39°F , 4°C
Dew Point: 36°F , 2°C
Humidity: 66%
Barometer: 29.51 inHg , 999.3 hPa
Summary: Light rain
Clouds: Overcast
Visibility: 10 miles , 16 km
Cloud details: Overcast 2900 ft
2020/04/02 17:18 KBOS 021718Z 32014G29KT 10SM -RA OVC029 08/02 A2951 RMK AO2 PK WND 32029/1709 RAB05 P0000 T00780022
 
KCQX - Chatham, Massachusetts, USA
Distance from station: SE 102mi, 164km
Updated: Thu, 02-Apr-2020 1:28pm EDT
Light rain, Mist, Overcast
Light rain, Mist, Overcast
 Wind from NNW
Wind: NNW 16 mph , 26 km/h, Gust: 29 mph , 46 km/h
Temperature: 43°F , 6°C
Wind Chill: 35°F , 2°C
Dew Point: 39°F , 4°C
Humidity: 87%
Barometer: 29.42 inHg , 996.3 hPa
Summary: Light rain, Mist
Clouds: Overcast
Visibility: 3 miles , 5 km
Cloud details: Overcast 600 ft
2020/04/02 17:28 KCQX 021728Z AUTO 34014G25KT 290V010 3SM -RA BR OVC006 06/04 A2942 RMK AO2 P0001 T00560039
KMVY - Marthas Vineyard, Massachusetts, USA
Distance from station: SE 84mi, 135km
Updated: Thu, 02-Apr-2020 12:53pm EDT
Overcast
Overcast
 Wind from N
Wind: N 22 mph , 35 km/h, Gust: 32 mph , 52 km/h
Temperature: 48°F , 9°C
Wind Chill: 41°F , 5°C
Dew Point: 37°F , 3°C
Humidity: 66%
Barometer: 29.46 inHg , 997.6 hPa
Clouds: Overcast
Visibility: 10 miles , 16 km
Cloud details: Overcast 2500 ft
2020/04/02 16:53 KMVY 021653Z 35019G28KT 10SM OVC025 09/03 A2946 RMK AO2 PK WND 34032/1608 SLP975 T00890033
 
KPVC - Provincetown, Massachusetts, USA
Distance from station: NNW 85mi, 136km
Updated: Thu, 02-Apr-2020 1:36pm EDT
Light rain, Mist, Overcast
Light rain, Mist, Overcast
 Wind from NNW
Wind: NNW 23 mph , 37 km/h, Gust: 30 mph , 48 km/h
Temperature: 43°F , 6°C
Wind Chill: 34°F , 1°C
Dew Point: 41°F , 5°C
Humidity: 93%
Barometer: 29.46 inHg , 997.6 hPa
Summary: Light rain, Mist
Clouds: Overcast
Visibility: 3 miles , 5 km
Cloud details: Overcast 700 ft
2020/04/02 17:36 KPVC 021736Z AUTO 34020G26KT 3SM -RA BR OVC007 06/05 A2946 RMK AO2 PK WND 33026/1736 P0000
KAQW - Savoy, Massachusetts, USA
Distance from station: NNW 66mi, 106km
Updated: Thu, 02-Apr-2020 12:52pm EDT
Overcast
Overcast
 Wind from WNW
Wind: WNW 14 mph , 22 km/h, Gust: 23 mph , 37 km/h
Temperature: 43°F , 6°C
Wind Chill: 36°F , 2°C
Dew Point: 30°F , -1°C
Humidity: 61%
Barometer: 29.68 inHg , 1005.1 hPa
Clouds: Overcast
Visibility: 10 miles , 16 km
Cloud details: Mostly cloudy 3200 ft
Overcast 9000 ft
2020/04/02 16:52 KAQW 021652Z AUTO 29012G20KT 10SM BKN032 OVC090 06/M01 A2968 RMK AO2 SLP057 T00611006
 
KIZG - Fryeburg, Maine, USA
Distance from station: NNE 133mi, 214km
Updated: Thu, 02-Apr-2020 12:54pm EDT
Overcast
Overcast
 Wind from N
Wind: N 18 mph , 30 km/h, Gust: 24 mph , 39 km/h
Temperature: 45°F , 7°C
Wind Chill: 37°F , 3°C
Dew Point: 32°F , 0°C
Humidity: 61%
Barometer: 29.56 inHg , 1001 hPa
Clouds: Overcast
Visibility: 10 miles , 16 km
Cloud details: Mostly cloudy 3900 ft
Overcast 5500 ft
2020/04/02 16:54 KIZG 021654Z AUTO 36016G21KT 10SM BKN039 OVC055 07/00 A2956 RMK AO2 SLP015 T00670000
KMWN - Mt Washington, New Hampshire, USA
Distance from station: NNE 146mi, 234km
Updated: Thu, 02-Apr-2020 12:47pm EDT

 Wind from NNE
Wind: NNE 30 mph , 48 km/h, Gust: 38 mph , 61 km/h
Visibility: 0 miles , 0 km
2020/04/02 16:47 KMWN 021647Z 02026G33KT 0SM -SNPL FZFG DRSN VV000 M03/M03 RMK PLB30 VRY LGT ICG
 
KBML - Berlin, New Hampshire, USA
Distance from station: NNE 160mi, 257km
Updated: Thu, 02-Apr-2020 1:28pm EDT
Light snow, Overcast
Light snow, Overcast
 Wind from varies
Wind: varies 6 mph , 9 km/h
Temperature: 37°F , 3°C
Wind Chill: 32°F , 0°C
Dew Point: 30°F , -1°C
Humidity: 75%
Barometer: 29.64 inHg , 1003.7 hPa
Summary: Light Snow
Clouds: Overcast
Visibility: 2 1/2 miles , 4 km
Cloud details: Overcast 2300 ft
2020/04/02 17:28 KBML 021728Z AUTO VRB05KT 2 1/2SM -SN OVC023 03/M01 A2964 RMK AO2 UPE08SNB08 P0001 T00281006